Terminal Aerodrome Forecast
Issued by NWS

Home | Current Version | Previous Version | Text Only | Print | Product List | Glossary On
Versions: 1 2 3 4 5 6 7 8 9 10 11 12 13 14 15 16
000
FTUS43 KGRB 281700
TAFMTW
TAF
KMTW 281720Z 2818/2918 21007KT P6SM SKC
     FM290300 20008KT P6SM SCT250
     FM290900 19012KT P6SM SCT100 BKN150 WS015/21040KT
     FM291200 19014G26KT P6SM SCT050 BKN150 WS020/21040KT
     FM291500 19020G29KT P6SM BKN050
      TEMPO 2915/2918 6SM -SN OVC030=

USA.gov is the U.S. government's official web portal to all federal, state and local government web resources and services.